Time;durP1;ratioP1;P1;durP2;ratioP2;P2;SDS_P1;SDS_P2;PMS_P1;PMS_P2;Temp;Humidity;BMP_temperature;BMP_pressure;BME280_temperature;BME280_humidity;BME280_pressure;Samples;Min_cycle;Max_cycle;Signal;HPM_P1;HPM_P2
2022/05/14 00:01:14;;;;;;;16.80;6.22;;;10.40;99.90;;;;;;6249120;22;20007;-57
2022/05/14 00:03:40;;;;;;;12.05;5.65;;;10.40;99.90;;;;;;6250099;22;20012;-57
2022/05/14 00:06:10;;;;;;;14.60;6.00;;;10.40;99.90;;;;;;6257338;22;20406;-57
2022/05/14 00:08:36;;;;;;;11.07;5.55;;;10.30;99.90;;;;;;6249347;22;20011;-57
2022/05/14 00:13:46;;;;;;;12.57;5.75;;;10.20;99.90;;;;;;6252000;22;20066;-57
2022/05/14 00:16:12;;;;;;;13.60;6.55;;;10.20;99.90;;;;;;6255949;22;20004;-58
2022/05/14 00:18:38;;;;;;;18.67;6.03;;;10.20;99.90;;;;;;6254532;22;20015;-57
2022/05/14 00:21:04;;;;;;;12.20;5.18;;;10.20;99.90;;;;;;6250808;22;20038;-58
2022/05/14 00:23:30;;;;;;;8.20;5.10;;;10.20;99.90;;;;;;6250079;22;20436;-57
2022/05/14 00:25:55;;;;;;;8.38;5.65;;;10.20;99.90;;;;;;6245492;22;20034;-57
2022/05/14 00:28:21;;;;;;;13.95;5.85;;;10.20;99.90;;;;;;6255247;22;20130;-57
2022/05/14 00:30:46;;;;;;;12.27;5.45;;;10.20;99.90;;;;;;6254614;22;20582;-57
2022/05/14 00:33:12;;;;;;;14.15;6.10;;;10.20;99.90;;;;;;6253098;22;19999;-58
2022/05/14 00:35:38;;;;;;;15.73;6.30;;;10.10;99.90;;;;;;6245382;22;20008;-57
2022/05/14 00:38:04;;;;;;;13.80;6.28;;;10.10;99.90;;;;;;6251879;22;20003;-57
2022/05/14 00:40:42;;;;;;;9.85;5.70;;;10.10;99.90;;;;;;6248290;22;19999;-56
2022/05/14 00:43:08;;;;;;;12.85;6.45;;;10.10;99.90;;;;;;6251962;22;20010;-56
2022/05/14 00:45:36;;;;;;;12.65;6.70;;;10.00;99.90;;;;;;6250475;22;20018;-57
2022/05/14 00:48:02;;;;;;;18.02;6.75;;;10.00;99.90;;;;;;6249280;22;20000;-57
2022/05/14 00:50:39;;;;;;;13.77;5.82;;;9.90;99.90;;;;;;6245909;22;20014;-57
2022/05/14 00:53:12;;;;;;;14.05;6.35;;;9.90;99.90;;;;;;6244559;22;20518;-58
2022/05/14 00:55:38;;;;;;;13.82;6.40;;;9.80;99.90;;;;;;6252996;22;20728;-56
2022/05/14 00:58:04;;;;;;;8.93;5.78;;;9.80;99.90;;;;;;6255447;22;20000;-57
2022/05/14 01:00:30;;;;;;;11.48;6.05;;;9.80;99.90;;;;;;6256554;22;20235;-57
2022/05/14 01:02:55;;;;;;;20.17;6.28;;;9.80;99.90;;;;;;6245791;22;20026;-57
2022/05/14 01:05:21;;;;;;;13.70;6.03;;;9.70;99.90;;;;;;6249185;22;20007;-57
2022/05/14 01:07:49;;;;;;;13.52;6.35;;;10.60;99.90;;;;;;6253889;22;20011;-57
2022/05/14 01:10:16;;;;;;;11.68;5.75;;;9.70;99.90;;;;;;6227634;22;20008;-58
2022/05/14 01:12:46;;;;;;;16.42;5.90;;;9.70;99.90;;;;;;6248854;22;20351;-57
2022/05/14 01:15:18;;;;;;;13.98;5.80;;;9.70;99.90;;;;;;6245193;22;20004;-57
2022/05/14 01:17:43;;;;;;;10.32;5.53;;;9.70;99.90;;;;;;6251393;22;20089;-57
2022/05/14 01:20:09;;;;;;;18.80;6.25;;;9.70;99.90;;;;;;6251371;22;20042;-57
2022/05/14 01:22:38;;;;;;;13.30;5.88;;;9.80;99.90;;;;;;6256865;22;20007;-57
2022/05/14 01:27:58;;;;;;;13.95;4.75;;;9.80;99.90;;;;;;6174330;22;20015;-56
2022/05/14 01:30:24;;;;;;;12.63;5.30;;;9.80;99.90;;;;;;6245476;22;19999;-57
2022/05/14 01:33:04;;;;;;;11.43;4.28;;;9.80;99.90;;;;;;6251581;22;20018;-57
2022/05/14 01:35:32;;;;;;;13.93;4.20;;;9.80;99.90;;;;;;6227614;22;20053;-57
2022/05/14 01:37:58;;;;;;;7.07;4.38;;;9.80;99.90;;;;;;6255558;22;20030;-57
2022/05/14 01:40:23;;;;;;;11.93;4.95;;;9.70;99.90;;;;;;6251451;22;19999;-57
2022/05/14 01:42:48;;;;;;;9.95;5.03;;;9.70;99.90;;;;;;6246815;22;20004;-58
2022/05/14 01:45:14;;;;;;;14.18;4.03;;;9.70;99.90;;;;;;6240052;22;20011;-57
2022/05/14 01:47:39;;;;;;;10.00;3.67;;;9.70;99.90;;;;;;6248251;22;20061;-57
2022/05/14 01:50:06;;;;;;;11.05;3.67;;;9.60;99.90;;;;;;6245384;22;20487;-57
2022/05/14 01:52:31;;;;;;;8.43;3.92;;;9.60;99.90;;;;;;6249556;22;20562;-56
2022/05/14 01:54:57;;;;;;;10.68;4.43;;;9.60;99.90;;;;;;6247282;22;20082;-56
2022/05/14 01:57:22;;;;;;;8.45;4.07;;;9.60;99.90;;;;;;6245755;22;20430;-56
2022/05/14 01:59:48;;;;;;;7.28;3.60;;;9.60;99.90;;;;;;6244637;22;20034;-57
2022/05/14 02:02:13;;;;;;;8.25;3.70;;;9.60;99.90;;;;;;6247751;22;20004;-57
2022/05/14 02:04:39;;;;;;;11.23;3.42;;;9.50;99.90;;;;;;6251413;22;20015;-58
2022/05/14 02:07:05;;;;;;;9.48;4.00;;;9.40;99.90;;;;;;6249473;22;20003;-57
2022/05/14 02:09:31;;;;;;;8.18;4.00;;;9.30;99.90;;;;;;6245600;22;20209;-56
2022/05/14 02:11:56;;;;;;;12.40;3.80;;;9.20;99.90;;;;;;6253381;22;20076;-57
2022/05/14 02:14:22;;;;;;;7.72;3.55;;;9.20;99.90;;;;;;6248841;22;20049;-57
2022/05/14 02:16:47;;;;;;;8.63;3.58;;;9.20;99.90;;;;;;6254929;22;20010;-57
2022/05/14 02:19:13;;;;;;;14.75;3.85;;;9.20;99.90;;;;;;6247338;22;20010;-57
2022/05/14 02:21:38;;;;;;;9.68;3.95;;;9.30;99.90;;;;;;6248028;22;20007;-57
2022/05/14 02:24:04;;;;;;;14.25;4.32;;;9.30;99.90;;;;;;6245480;22;20008;-58
2022/05/14 02:26:30;;;;;;;10.95;4.00;;;9.30;99.90;;;;;;6251589;22;20008;-56
2022/05/14 02:28:55;;;;;;;11.90;4.25;;;9.40;99.90;;;;;;6252642;22;20015;-57
2022/05/14 02:31:21;;;;;;;16.92;4.47;;;9.40;99.90;;;;;;6252628;22;20011;-57
2022/05/14 02:33:47;;;;;;;12.48;4.10;;;9.30;99.90;;;;;;6249511;22;20006;-56
2022/05/14 02:36:13;;;;;;;10.50;4.32;;;9.30;99.90;;;;;;6244930;22;20007;-57
2022/05/14 02:38:38;;;;;;;9.60;4.68;;;9.30;99.90;;;;;;6246234;22;20082;-56
2022/05/14 02:41:08;;;;;;;11.20;4.38;;;9.30;99.90;;;;;;6248043;22;20114;-61
2022/05/14 02:43:34;;;;;;;10.15;3.97;;;9.30;99.90;;;;;;6252329;22;20153;-58
2022/05/14 02:46:02;;;;;;;14.35;4.35;;;9.20;99.90;;;;;;6248447;22;20282;-56
2022/05/14 02:48:28;;;;;;;9.13;4.25;;;9.10;99.90;;;;;;6245203;22;20065;-57
2022/05/14 02:50:53;;;;;;;16.13;4.90;;;9.10;99.90;;;;;;6246176;22;20093;-56
2022/05/14 02:53:19;;;;;;;12.35;5.10;;;9.10;99.90;;;;;;6244294;22;20003;-57
2022/05/14 02:55:44;;;;;;;14.15;4.22;;;9.20;99.90;;;;;;6249145;22;20003;-57
2022/05/14 02:58:10;;;;;;;12.07;4.50;;;9.20;99.90;;;;;;6253528;22;20479;-57
2022/05/14 03:00:35;;;;;;;10.80;3.88;;;9.20;99.90;;;;;;6244305;22;20254;-56
2022/05/14 03:03:01;;;;;;;12.80;4.40;;;9.30;99.90;;;;;;6250922;22;20164;-57
2022/05/14 03:05:27;;;;;;;9.05;4.00;;;9.10;99.90;;;;;;6248344;22;20010;-56
2022/05/14 03:07:52;;;;;;;9.85;3.97;;;9.10;99.90;;;;;;6254416;22;20003;-56
2022/05/14 03:10:18;;;;;;;13.65;4.70;;;9.10;99.90;;;;;;6252308;22;20015;-56
2022/05/14 03:12:44;;;;;;;13.55;4.47;;;9.00;99.90;;;;;;6251508;22;20015;-56
2022/05/14 03:15:10;;;;;;;12.82;4.75;;;9.10;99.90;;;;;;6251199;22;20004;-56
2022/05/14 03:17:35;;;;;;;9.88;4.53;;;9.10;99.90;;;;;;6253566;22;20003;-57
2022/05/14 03:20:06;;;;;;;16.38;4.55;;;9.10;99.90;;;;;;6255959;22;20555;-57
2022/05/14 03:22:35;;;;;;;10.95;4.93;;;9.10;99.90;;;;;;6256882;22;20594;-56
2022/05/14 03:25:00;;;;;;;12.18;5.18;;;9.00;99.90;;;;;;6255747;22;20036;-56
2022/05/14 03:27:26;;;;;;;9.52;4.55;;;9.00;99.90;;;;;;6251338;22;20091;-56
2022/05/14 03:29:51;;;;;;;13.75;4.90;;;9.10;99.90;;;;;;6248329;22;20003;-57
2022/05/14 03:32:17;;;;;;;19.33;5.43;;;9.00;99.90;;;;;;6255383;22;20003;-57
2022/05/14 03:34:42;;;;;;;12.52;4.68;;;9.00;99.90;;;;;;6256025;22;20000;-56
2022/05/14 03:37:08;;;;;;;13.20;5.28;;;9.00;99.90;;;;;;6257139;22;20004;-57
2022/05/14 03:39:34;;;;;;;16.50;5.97;;;9.00;99.90;;;;;;6252394;22;20432;-57
2022/05/14 03:41:59;;;;;;;14.63;5.95;;;9.00;99.90;;;;;;6253344;22;20008;-57
2022/05/14 03:44:25;;;;;;;14.18;5.03;;;9.00;99.90;;;;;;6248192;22;20014;-56
2022/05/14 03:46:51;;;;;;;14.30;5.70;;;9.00;99.90;;;;;;6249077;22;20004;-57
2022/05/14 03:49:17;;;;;;;14.57;5.25;;;9.00;99.90;;;;;;6254165;22;20007;-57
2022/05/14 03:51:42;;;;;;;11.43;5.10;;;8.90;99.90;;;;;;6254790;22;20030;-56
2022/05/14 03:54:08;;;;;;;11.63;5.35;;;8.90;99.90;;;;;;6249951;22;19999;-57
2022/05/14 03:56:33;;;;;;;16.98;5.75;;;8.90;99.90;;;;;;6249623;22;20003;-57
2022/05/14 03:58:59;;;;;;;15.90;5.68;;;8.90;99.90;;;;;;6247743;22;20000;-56
2022/05/14 04:01:24;;;;;;;14.80;6.18;;;8.90;99.90;;;;;;6251672;22;20006;-56
2022/05/14 04:03:50;;;;;;;11.13;5.20;;;9.00;99.90;;;;;;6255119;22;20007;-57
2022/05/14 04:06:16;;;;;;;18.88;5.88;;;9.10;99.90;;;;;;6253895;22;20040;-56
2022/05/14 04:08:42;;;;;;;15.77;5.35;;;9.20;99.90;;;;;;6251485;22;20093;-56
2022/05/14 04:11:07;;;;;;;11.25;4.85;;;9.20;99.90;;;;;;6253722;22;20126;-57
2022/05/14 04:13:33;;;;;;;12.13;5.38;;;9.30;99.90;;;;;;6248089;22;20403;-56
2022/05/14 04:15:59;;;;;;;14.00;5.75;;;9.30;99.90;;;;;;6253155;22;20022;-57
2022/05/14 04:18:24;;;;;;;11.82;5.68;;;9.50;99.90;;;;;;6254402;22;20000;-57
2022/05/14 04:20:58;;;;;;;14.25;5.10;;;10.30;99.90;;;;;;6256748;22;20004;-57
2022/05/14 04:23:26;;;;;;;7.80;4.85;;;9.50;99.90;;;;;;6256423;22;20462;-56
2022/05/14 04:25:52;;;;;;;10.73;5.18;;;9.60;99.90;;;;;;6169896;22;20004;-57
2022/05/14 04:28:18;;;;;;;10.18;5.15;;;9.70;99.90;;;;;;6253357;22;20008;-56
2022/05/14 04:30:43;;;;;;;16.42;5.10;;;9.70;99.90;;;;;;6259125;22;20596;-63
2022/05/14 04:33:10;;;;;;;14.10;5.20;;;9.80;99.90;;;;;;6257094;22;20246;-56
2022/05/14 04:35:35;;;;;;;10.13;4.72;;;10.40;99.90;;;;;;6255443;22;20004;-56
2022/05/14 04:38:01;;;;;;;14.07;5.35;;;10.10;99.90;;;;;;6251425;22;20001;-57
2022/05/14 04:40:27;;;;;;;13.18;4.53;;;10.10;99.90;;;;;;6252931;22;20058;-56
2022/05/14 04:42:52;;;;;;;13.63;4.97;;;10.10;99.90;;;;;;6253304;22;20554;-56
2022/05/14 04:45:18;;;;;;;9.00;4.25;;;10.30;99.90;;;;;;6256364;22;20027;-56
2022/05/14 04:47:44;;;;;;;10.95;4.22;;;10.30;99.90;;;;;;6255446;22;20047;-57
2022/05/14 04:50:10;;;;;;;11.63;4.63;;;10.30;99.90;;;;;;6254095;22;20027;-57
2022/05/14 04:52:35;;;;;;;11.90;4.95;;;10.40;99.90;;;;;;6249527;22;20553;-57
2022/05/14 04:55:01;;;;;;;19.27;4.53;;;10.60;99.90;;;;;;6252330;22;20205;-57
2022/05/14 04:57:26;;;;;;;7.10;3.97;;;10.60;99.90;;;;;;6247279;22;20310;-57
2022/05/14 04:59:53;;;;;;;9.88;4.53;;;10.50;99.90;;;;;;6255010;22;19999;-58
2022/05/14 05:05:03;;;;;;;14.02;4.55;;;10.90;99.90;;;;;;6252215;22;20361;-57
2022/05/14 05:07:29;;;;;;;7.80;3.78;;;11.40;99.90;;;;;;6246625;22;20091;-57
2022/05/14 05:09:54;;;;;;;7.30;3.55;;;12.30;98.40;;;;;;6251481;22;20090;-57
2022/05/14 05:12:20;;;;;;;6.47;2.97;;;13.20;96.10;;;;;;6253007;22;20362;-57
2022/05/14 05:14:45;;;;;;;11.43;3.70;;;13.80;94.40;;;;;;6256704;22;20015;-57
2022/05/14 05:17:11;;;;;;;8.68;3.33;;;14.30;93.50;;;;;;6259198;22;20336;-57
2022/05/14 05:19:36;;;;;;;7.55;3.10;;;15.20;90.70;;;;;;6252416;22;20316;-57
2022/05/14 05:22:02;;;;;;;8.77;2.95;;;15.70;88.40;;;;;;6254681;22;20010;-57
2022/05/14 05:24:27;;;;;;;8.90;3.03;;;16.70;81.00;;;;;;6250208;22;20008;-57
2022/05/14 05:26:53;;;;;;;6.82;2.75;;;16.80;78.30;;;;;;6256716;22;20014;-55
2022/05/14 05:29:18;;;;;;;10.00;2.95;;;17.40;75.10;;;;;;6251768;22;20004;-57
2022/05/14 05:31:44;;;;;;;7.38;2.83;;;17.50;71.40;;;;;;6259485;22;20021;-56
2022/05/14 05:34:10;;;;;;;6.82;2.40;;;18.30;67.60;;;;;;6252696;22;20003;-56
2022/05/14 05:36:35;;;;;;;6.55;2.08;;;18.50;66.50;;;;;;6251657;22;20000;-56
2022/05/14 05:39:01;;;;;;;9.07;2.78;;;17.90;67.30;;;;;;6249094;22;20004;-57
2022/05/14 05:41:26;;;;;;;4.45;1.95;;;18.40;65.30;;;;;;6250503;22;20011;-57
2022/05/14 05:43:52;;;;;;;9.63;2.40;;;18.00;65.90;;;;;;6257572;22;20000;-56
2022/05/14 05:46:17;;;;;;;6.80;2.30;;;18.00;65.60;;;;;;6254940;22;20026;-57
2022/05/14 05:48:43;;;;;;;7.97;2.72;;;18.60;63.10;;;;;;6249026;22;20017;-57
2022/05/14 05:51:09;;;;;;;9.25;2.67;;;18.80;60.80;;;;;;6253220;22;20007;-57
2022/05/14 05:59:03;;;;;;;6.55;2.63;;;19.40;62.40;;;;;;6256185;22;20015;-57
2022/05/14 06:01:29;;;;;;;7.75;2.25;;;18.40;61.90;;;;;;6254404;22;20011;-57
2022/05/14 06:03:54;;;;;;;8.27;2.65;;;19.40;60.40;;;;;;6250460;22;20078;-57
2022/05/14 06:06:20;;;;;;;6.25;2.63;;;20.40;57.80;;;;;;6249557;22;20053;-59
2022/05/14 06:08:47;;;;;;;8.00;2.50;;;20.00;58.40;;;;;;6252806;22;20003;-58
2022/05/14 06:11:13;;;;;;;9.02;2.47;;;20.10;58.80;;;;;;6255231;22;20519;-59
2022/05/14 06:13:39;;;;;;;8.63;2.22;;;20.10;56.50;;;;;;6250459;22;20185;-58
2022/05/14 06:16:04;;;;;;;8.85;2.58;;;19.80;57.80;;;;;;6254950;22;20168;-58
2022/05/14 06:18:30;;;;;;;10.55;2.80;;;19.80;59.20;;;;;;6254156;22;20483;-58
2022/05/14 06:20:55;;;;;;;8.20;3.03;;;19.70;58.70;;;;;;6254024;22;20086;-57
2022/05/14 06:23:21;;;;;;;11.30;2.85;;;20.70;58.00;;;;;;6255207;22;20479;-57
2022/05/14 06:25:46;;;;;;;11.88;2.72;;;20.40;56.60;;;;;;6257581;22;19996;-55
2022/05/14 06:28:12;;;;;;;8.60;3.50;;;20.60;55.70;;;;;;6190935;22;19996;-56
2022/05/14 06:30:41;;;;;;;6.90;2.80;;;20.00;58.90;;;;;;6248308;22;20007;-59
2022/05/14 06:33:07;;;;;;;11.18;3.00;;;19.90;58.00;;;;;;6254654;22;20027;-56
2022/05/14 06:35:32;;;;;;;5.85;2.55;;;19.50;58.70;;;;;;6252514;22;20004;-58
2022/05/14 06:37:59;;;;;;;11.35;2.78;;;20.10;57.10;;;;;;6258663;22;20003;-57
2022/05/14 06:40:24;;;;;;;16.08;3.03;;;21.00;56.60;;;;;;6254497;22;20004;-58
2022/05/14 06:42:50;;;;;;;10.20;3.03;;;20.40;56.00;;;;;;6251443;22;20012;-58
2022/05/14 06:45:16;;;;;;;9.05;2.90;;;20.90;56.30;;;;;;6249359;22;20329;-58
2022/05/14 06:47:41;;;;;;;14.02;3.40;;;21.80;52.00;;;;;;6255352;22;20080;-59
2022/05/14 06:50:07;;;;;;;12.90;3.20;;;20.70;55.20;;;;;;6255289;22;20069;-57
2022/05/14 06:52:33;;;;;;;7.38;3.55;;;21.20;55.50;;;;;;6251818;22;20064;-57
2022/05/14 06:54:59;;;;;;;12.52;3.33;;;20.90;55.20;;;;;;6221973;22;19999;-58
2022/05/14 06:57:24;;;;;;;12.38;3.80;;;21.60;54.20;;;;;;6252022;22;19996;-57
2022/05/14 06:59:50;;;;;;;11.35;3.70;;;22.90;52.80;;;;;;6246500;22;20011;-57
2022/05/14 07:02:15;;;;;;;11.45;3.90;;;22.40;51.90;;;;;;6253107;22;20336;-58
2022/05/14 07:07:25;;;;;;;11.87;4.07;;;22.90;52.20;;;;;;6252905;22;20346;-57
2022/05/14 07:09:52;;;;;;;18.27;4.70;;;22.20;52.10;;;;;;6251196;22;19996;-57
2022/05/14 07:12:19;;;;;;;10.50;3.58;;;22.00;51.70;;;;;;6256776;22;20525;-59
2022/05/14 07:14:45;;;;;;;10.82;3.97;;;25.50;49.40;;;;;;6255869;22;20591;-58
2022/05/14 07:17:10;;;;;;;13.00;4.22;;;24.60;48.90;;;;;;6255588;22;20075;-58
2022/05/14 07:19:37;;;;;;;16.20;4.65;;;24.30;50.00;;;;;;6249664;22;20057;-59
2022/05/14 07:22:02;;;;;;;11.70;4.13;;;23.20;50.60;;;;;;6250791;22;20008;-58
2022/05/14 07:24:29;;;;;;;14.07;4.88;;;22.50;52.00;;;;;;6252648;22;20118;-58
2022/05/14 07:26:56;;;;;;;9.63;4.57;;;22.60;52.10;;;;;;6189213;22;20090;-57
2022/05/14 07:29:23;;;;;;;11.55;4.80;;;22.90;50.90;;;;;;6254063;22;20754;-57
2022/05/14 07:31:48;;;;;;;9.60;3.65;;;22.30;51.80;;;;;;6256645;22;20591;-59
2022/05/14 07:34:14;;;;;;;15.90;4.70;;;22.60;52.60;;;;;;6259400;22;20030;-59
2022/05/14 07:36:56;;;;;;;10.00;4.00;;;23.90;50.80;;;;;;6262541;22;20033;-58
2022/05/14 07:39:23;;;;;;;14.82;4.80;;;25.60;47.70;;;;;;6262533;22;20011;-58
2022/05/14 07:41:50;;;;;;;16.50;4.53;;;24.50;47.80;;;;;;6260544;22;20317;-58
2022/05/14 07:44:16;;;;;;;14.48;4.13;;;23.60;49.90;;;;;;6262361;22;20019;-59
2022/05/14 07:46:44;;;;;;;13.55;4.63;;;23.70;48.80;;;;;;6259483;22;20012;-59
2022/05/14 07:49:10;;;;;;;9.73;4.00;;;24.40;49.30;;;;;;6263173;22;20741;-58
2022/05/14 07:51:36;;;;;;;11.13;4.55;;;23.30;49.60;;;;;;6260419;22;20011;-59
2022/05/14 07:54:03;;;;;;;12.70;4.97;;;24.70;48.80;;;;;;6262414;22;20004;-59
2022/05/14 07:56:28;;;;;;;14.40;4.70;;;24.90;49.30;;;;;;6260090;22;20004;-59
2022/05/14 07:58:53;;;;;;;16.40;5.70;;;25.20;47.70;;;;;;6255980;22;20015;-59
2022/05/14 08:01:19;;;;;;;14.65;5.72;;;23.10;50.20;;;;;;6253092;22;20031;-59
2022/05/14 08:03:47;;;;;;;18.75;5.22;;;24.20;49.50;;;;;;6249706;22;20007;-58
2022/05/14 08:06:15;;;;;;;14.68;4.72;;;26.10;47.90;;;;;;6254676;22;20086;-60
2022/05/14 08:08:40;;;;;;;12.93;5.03;;;25.50;48.90;;;;;;6250456;22;20069;-57
2022/05/14 08:11:06;;;;;;;14.13;5.40;;;25.00;49.10;;;;;;6258951;22;20436;-59
2022/05/14 08:13:34;;;;;;;16.60;5.72;;;25.20;46.90;;;;;;6257240;22;20038;-60
2022/05/14 08:16:00;;;;;;;18.73;5.85;;;25.60;48.20;;;;;;6253174;22;20052;-58
2022/05/14 08:18:25;;;;;;;17.15;5.95;;;24.40;48.00;;;;;;6250272;22;20023;-57
2022/05/14 08:20:51;;;;;;;10.60;4.68;;;23.80;49.30;;;;;;6257968;22;20004;-57
2022/05/14 08:26:01;;;;;;;15.68;5.38;;;24.80;48.60;;;;;;6203734;22;20134;-57
2022/05/14 08:28:27;;;;;;;16.50;5.93;;;25.90;49.20;;;;;;6252467;22;20019;-58
2022/05/14 08:30:53;;;;;;;18.48;6.50;;;26.00;47.60;;;;;;6252216;22;20007;-58
2022/05/14 08:33:19;;;;;;;26.08;8.45;;;25.30;49.10;;;;;;6251440;22;20091;-58
2022/05/14 08:35:45;;;;;;;16.50;5.35;;;24.90;49.70;;;;;;6254465;22;20085;-58
2022/05/14 08:38:11;;;;;;;16.90;6.07;;;27.10;47.80;;;;;;6255666;22;20061;-58
2022/05/14 08:40:57;;;;;;;13.25;5.70;;;26.20;47.90;;;;;;6262099;22;20061;-58
2022/05/14 08:43:28;;;;;;;14.90;5.38;;;26.30;48.20;;;;;;6259926;22;20370;-57
2022/05/14 08:45:54;;;;;;;20.00;6.55;;;25.90;47.40;;;;;;6237046;22;20061;-57
2022/05/14 08:48:26;;;;;;;16.75;5.80;;;25.10;48.80;;;;;;6262894;22;20163;-58
2022/05/14 08:51:04;;;;;;;13.98;6.40;;;25.90;47.20;;;;;;6262630;22;20007;-57
2022/05/14 08:53:31;;;;;;;14.23;6.18;;;26.90;46.60;;;;;;6263417;22;20011;-58
2022/05/14 08:56:26;;;;;;;13.98;5.80;;;26.20;47.20;;;;;;6262047;22;20027;-58
2022/05/14 08:59:17;;;;;;;16.48;5.60;;;26.60;47.20;;;;;;6256236;22;20394;-58
2022/05/14 09:01:43;;;;;;;15.25;5.45;;;25.40;49.80;;;;;;6249564;22;20082;-58
2022/05/14 09:04:09;;;;;;;17.33;6.38;;;25.40;49.50;;;;;;6255180;22;20012;-58
2022/05/14 09:06:36;;;;;;;13.70;5.25;;;25.90;49.20;;;;;;6250092;22;20079;-58
2022/05/14 09:09:02;;;;;;;20.75;6.50;;;26.70;49.10;;;;;;6251310;22;20011;-58
2022/05/14 09:11:36;;;;;;;14.48;6.10;;;26.30;50.30;;;;;;6250032;22;20019;-58
2022/05/14 09:14:01;;;;;;;15.60;6.35;;;27.10;46.60;;;;;;6254851;22;20025;-58
2022/05/14 09:16:32;;;;;;;17.10;5.70;;;26.10;48.80;;;;;;6257000;22;20000;-58
2022/05/14 09:18:57;;;;;;;19.23;6.40;;;25.70;49.20;;;;;;6257269;22;20026;-58
2022/05/14 09:21:31;;;;;;;14.95;5.82;;;25.80;50.50;;;;;;6251638;22;20065;-58
2022/05/14 09:23:58;;;;;;;11.68;4.90;;;25.90;50.10;;;;;;6250882;22;20007;-59
2022/05/14 09:26:26;;;;;;;17.92;6.18;;;27.00;48.90;;;;;;6203225;22;20027;-58
2022/05/14 09:28:54;;;;;;;14.82;5.05;;;27.10;46.20;;;;;;6256688;22;20003;-58
2022/05/14 09:31:32;;;;;;;16.55;5.90;;;27.10;46.80;;;;;;6257222;22;20023;-58
2022/05/14 09:34:06;;;;;;;16.95;6.38;;;25.90;49.30;;;;;;6249711;22;20456;-58
2022/05/14 09:36:32;;;;;;;16.15;5.50;;;26.20;47.50;;;;;;6248944;22;20000;-58
2022/05/14 09:39:02;;;;;;;18.08;5.65;;;27.10;46.80;;;;;;6250887;22;20004;-59
2022/05/14 09:41:28;;;;;;;13.20;5.38;;;26.50;49.80;;;;;;6256436;22;20404;-58
2022/05/14 09:43:53;;;;;;;13.93;5.85;;;27.30;48.10;;;;;;6253859;22;20011;-59
2022/05/14 09:46:29;;;;;;;17.98;5.45;;;27.10;46.80;;;;;;6250548;22;20007;-58
2022/05/14 09:49:06;;;;;;;16.17;5.82;;;26.70;47.80;;;;;;6249057;22;20004;-58
2022/05/14 09:51:50;;;;;;;15.80;5.68;;;27.00;48.30;;;;;;6248346;22;20460;-58
2022/05/14 09:54:36;;;;;;;19.67;5.25;;;27.00;47.40;;;;;;6250463;22;20542;-58
2022/05/14 09:57:27;;;;;;;12.80;5.30;;;27.00;48.70;;;;;;6226662;22;19999;-59
2022/05/14 10:00:14;;;;;;;14.25;5.35;;;26.80;50.20;;;;;;6254869;22;20098;-58
2022/05/14 10:03:06;;;;;;;17.02;5.90;;;26.90;46.80;;;;;;6250202;22;20007;-59
2022/05/14 10:06:01;;;;;;;16.08;6.03;;;27.60;45.80;;;;;;6247040;22;20444;-58
2022/05/14 10:08:46;;;;;;;17.30;6.38;;;26.50;46.40;;;;;;6249655;22;20480;-58
2022/05/14 10:11:22;;;;;;;;;;;27.20;47.20;;;;;;6254649;22;20074;-59
2022/05/14 10:13:56;;;;;;;14.05;5.00;;;27.80;46.90;;;;;;6252486;22;19910;-59
2022/05/14 10:16:30;;;;;;;19.88;5.63;;;27.90;47.20;;;;;;6253185;22;20468;-58
2022/05/14 10:19:25;;;;;;;12.82;5.47;;;28.00;47.20;;;;;;6253910;22;20114;-58
2022/05/14 10:22:07;;;;;;;19.65;6.65;;;27.30;47.40;;;;;;6250313;22;20003;-59
2022/05/14 10:28:12;;;;;;;17.52;6.18;;;28.20;46.90;;;;;;6258462;22;20015;-59
2022/05/14 10:30:50;;;;;;;14.70;4.60;;;27.90;47.80;;;;;;6174096;23;20028;-58
2022/05/14 10:33:20;;;;;;;16.15;5.18;;;28.50;45.90;;;;;;6238348;22;20035;-59
2022/05/14 10:36:05;;;;;;;16.60;4.95;;;26.70;49.40;;;;;;6221226;22;20083;-60
2022/05/14 10:38:41;;;;;;;15.82;5.55;;;28.40;47.50;;;;;;6226467;22;20049;-59
2022/05/14 10:41:07;;;;;;;14.68;5.72;;;28.20;45.90;;;;;;6248946;22;20894;-60
2022/05/14 10:43:48;;;;;;;14.40;5.32;;;28.00;47.40;;;;;;6255473;22;20015;-59
2022/05/14 10:46:19;;;;;;;15.23;4.80;;;28.90;44.90;;;;;;6247439;22;20008;-59
2022/05/14 10:49:08;;;;;;;18.20;5.45;;;28.50;45.80;;;;;;6252467;22;20011;-59
2022/05/14 10:51:44;;;;;;;15.55;5.93;;;26.80;47.20;;;;;;6248972;22;20202;-59
2022/05/14 10:54:14;;;;;;;15.70;5.65;;;25.80;48.70;;;;;;6251669;22;20445;-59
2022/05/14 10:56:56;;;;;;;24.88;8.95;;;25.10;50.40;;;;;;6252883;22;20042;-58
2022/05/14 10:59:34;;;;;;;19.15;5.93;;;24.90;53.90;;;;;;6255637;22;20003;-59
2022/05/14 11:02:01;;;;;;;12.27;5.78;;;25.60;50.80;;;;;;6253404;22;20086;-59
2022/05/14 11:04:36;;;;;;;13.65;5.57;;;25.10;50.90;;;;;;6251032;22;20010;-59
2022/05/14 11:07:04;;;;;;;19.98;5.40;;;25.00;53.10;;;;;;6262973;22;20038;-58
2022/05/14 11:09:39;;;;;;;15.07;5.88;;;24.80;50.70;;;;;;6236620;22;20004;-59
2022/05/14 11:12:19;;;;;;;15.55;4.75;;;24.40;52.90;;;;;;6260403;22;20015;-59
2022/05/14 11:14:48;;;;;;;15.73;4.75;;;23.90;53.10;;;;;;6263247;22;20011;-59
2022/05/14 11:17:23;;;;;;;16.35;5.22;;;23.70;51.70;;;;;;6265496;22;20004;-59
2022/05/14 11:19:49;;;;;;;15.90;4.57;;;23.70;52.30;;;;;;6261316;22;20066;-59
2022/05/14 11:22:19;;;;;;;13.98;4.45;;;23.10;53.80;;;;;;6262598;22;20243;-59
2022/05/14 11:24:44;;;;;;;17.95;5.47;;;23.30;54.80;;;;;;6235574;22;20003;-58
2022/05/14 11:27:10;;;;;;;18.35;6.10;;;23.90;55.00;;;;;;6263419;22;20002;-58
2022/05/14 11:30:08;;;;;;;10.18;4.15;;;23.70;55.10;;;;;;6261379;22;20015;-59
2022/05/14 11:33:00;;;;;;;16.83;5.90;;;24.10;51.40;;;;;;6246778;22;20008;-59
2022/05/14 11:35:42;;;;;;;13.25;4.53;;;25.20;50.50;;;;;;6257895;22;20008;-58
2022/05/14 11:38:24;;;;;;;40.20;13.02;;;25.90;48.50;;;;;;6261714;22;20415;-58
2022/05/14 11:40:56;;;;;;;14.05;4.55;;;27.70;49.40;;;;;;6262128;22;20015;-59
2022/05/14 11:43:31;;;;;;;54.97;18.13;;;25.90;47.90;;;;;;6263832;22;20010;-58
2022/05/14 11:46:11;;;;;;;17.15;5.45;;;26.10;51.40;;;;;;6261120;22;20492;-58
2022/05/14 11:48:44;;;;;;;16.27;4.97;;;26.40;48.50;;;;;;6260609;22;20008;-59
2022/05/14 11:51:18;;;;;;;74.13;27.58;;;26.10;45.10;;;;;;6262721;22;20015;-58
2022/05/14 11:53:46;;;;;;;12.60;4.40;;;26.70;49.90;;;;;;6262992;22;20593;-59
2022/05/14 11:56:30;;;;;;;11.75;4.43;;;25.70;49.40;;;;;;6264199;22;20034;-58
2022/05/14 11:59:01;;;;;;;13.52;4.80;;;26.60;47.70;;;;;;6263932;22;20077;-59
2022/05/14 12:01:30;;;;;;;14.93;5.30;;;26.40;46.70;;;;;;6239286;22;20025;-56
2022/05/14 12:03:59;;;;;;;12.82;4.50;;;26.90;46.50;;;;;;6231087;22;20008;-58
2022/05/14 12:06:58;;;;;;;12.93;4.50;;;27.10;46.50;;;;;;6262046;22;20000;-59
2022/05/14 12:09:46;;;;;;;11.65;3.95;;;27.00;46.40;;;;;;6262248;22;20014;-58
2022/05/14 12:12:23;;;;;;;18.90;5.05;;;26.80;48.30;;;;;;6261768;22;20019;-59
2022/05/14 12:14:49;;;;;;;13.73;4.72;;;25.40;50.00;;;;;;6257877;22;20015;-59
2022/05/14 12:17:16;;;;;;;18.85;5.00;;;25.30;50.60;;;;;;6262428;22;19996;-59
2022/05/14 12:19:44;;;;;;;9.68;3.85;;;25.20;48.70;;;;;;6262960;22;20038;-58
2022/05/14 12:22:15;;;;;;;13.98;4.38;;;26.10;48.60;;;;;;6237725;22;20519;-58
2022/05/14 12:24:51;;;;;;;12.45;4.25;;;25.10;48.50;;;;;;6261908;22;20012;-59
2022/05/14 12:27:18;;;;;;;23.25;4.93;;;24.70;50.90;;;;;;6265689;22;19999;-58
2022/05/14 12:29:55;;;;;;;14.30;6.07;;;24.30;51.20;;;;;;6262554;22;20011;-58
2022/05/14 12:35:17;;;;;;;15.52;5.88;;;24.70;50.20;;;;;;6262386;22;20675;-59
2022/05/14 12:37:43;;;;;;;12.75;4.50;;;24.70;50.50;;;;;;6258778;22;20010;-60
2022/05/14 12:40:09;;;;;;;16.92;3.78;;;24.30;51.30;;;;;;6261039;22;20088;-59
2022/05/14 12:42:39;;;;;;;11.60;3.83;;;24.80;49.80;;;;;;6256090;22;20014;-60
2022/05/14 12:45:05;;;;;;;14.15;5.05;;;25.30;50.70;;;;;;6258338;22;20049;-58
2022/05/14 12:47:32;;;;;;;12.88;4.30;;;25.10;49.70;;;;;;6256927;22;20012;-60
2022/05/14 12:49:57;;;;;;;13.82;3.90;;;24.90;47.30;;;;;;6235006;22;20318;-60
2022/05/14 12:52:28;;;;;;;11.90;4.40;;;24.70;50.10;;;;;;6263322;22;20107;-60
2022/05/14 12:55:01;;;;;;;12.35;4.10;;;24.40;52.40;;;;;;6232010;22;20008;-60
2022/05/14 12:57:26;;;;;;;11.82;4.30;;;24.60;51.20;;;;;;6260854;22;20004;-60
2022/05/14 12:59:53;;;;;;;14.68;4.78;;;24.40;50.40;;;;;;6256199;22;20380;-60
2022/05/14 13:02:29;;;;;;;10.88;3.83;;;23.90;49.50;;;;;;6254102;22;20003;-60
2022/05/14 13:04:57;;;;;;;10.00;3.60;;;24.60;51.10;;;;;;6259948;22;20053;-60
2022/05/14 13:07:23;;;;;;;16.02;4.78;;;24.00;53.40;;;;;;6261173;22;20062;-60
2022/05/14 13:09:49;;;;;;;16.98;6.55;;;23.80;54.40;;;;;;6251717;22;20003;-59
2022/05/14 13:12:18;;;;;;;12.43;4.10;;;24.10;52.70;;;;;;6255337;22;20012;-61
2022/05/14 13:14:51;;;;;;;14.35;3.85;;;24.30;52.70;;;;;;6235724;22;20004;-59